sensor_id;sensor_type;location;lat;lon;timestamp;P1;durP1;ratioP1;P2;durP2;ratioP2
62030;SDS011;62035;52.094;5.112;2022-12-07T00:01:21;8.43;;;3.30;;
62030;SDS011;62035;52.094;5.112;2022-12-07T00:03:52;14.20;;;3.80;;
62030;SDS011;62035;52.094;5.112;2022-12-07T00:06:26;7.90;;;2.85;;
62030;SDS011;62035;52.094;5.112;2022-12-07T00:08:54;8.52;;;2.72;;
62030;SDS011;62035;52.094;5.112;2022-12-07T00:11:22;6.85;;;2.60;;
62030;SDS011;62035;52.094;5.112;2022-12-07T00:13:51;11.30;;;2.88;;
62030;SDS011;62035;52.094;5.112;2022-12-07T00:16:21;9.38;;;2.50;;
62030;SDS011;62035;52.094;5.112;2022-12-07T00:18:54;6.57;;;2.53;;
62030;SDS011;62035;52.094;5.112;2022-12-07T00:21:22;8.45;;;2.42;;
62030;SDS011;62035;52.094;5.112;2022-12-07T00:23:53;8.10;;;2.38;;
62030;SDS011;62035;52.094;5.112;2022-12-07T00:26:24;7.95;;;2.50;;
62030;SDS011;62035;52.094;5.112;2022-12-07T00:28:55;8.13;;;2.13;;
62030;SDS011;62035;52.094;5.112;2022-12-07T00:31:25;9.23;;;2.40;;
62030;SDS011;62035;52.094;5.112;2022-12-07T00:33:58;11.18;;;2.33;;
62030;SDS011;62035;52.094;5.112;2022-12-07T00:36:25;5.80;;;2.13;;
62030;SDS011;62035;52.094;5.112;2022-12-07T00:38:53;9.65;;;2.80;;
62030;SDS011;62035;52.094;5.112;2022-12-07T00:41:22;6.75;;;2.50;;
62030;SDS011;62035;52.094;5.112;2022-12-07T00:43:52;4.30;;;2.10;;
62030;SDS011;62035;52.094;5.112;2022-12-07T00:46:21;8.00;;;2.15;;
62030;SDS011;62035;52.094;5.112;2022-12-07T00:48:50;6.10;;;2.17;;
62030;SDS011;62035;52.094;5.112;2022-12-07T00:51:21;6.75;;;2.55;;
62030;SDS011;62035;52.094;5.112;2022-12-07T00:53:51;6.35;;;2.20;;
62030;SDS011;62035;52.094;5.112;2022-12-07T00:56:20;8.13;;;2.20;;
62030;SDS011;62035;52.094;5.112;2022-12-07T00:58:50;11.85;;;2.95;;
62030;SDS011;62035;52.094;5.112;2022-12-07T01:01:19;13.40;;;2.50;;
62030;SDS011;62035;52.094;5.112;2022-12-07T01:03:47;8.60;;;2.45;;
62030;SDS011;62035;52.094;5.112;2022-12-07T01:06:16;8.65;;;2.55;;
62030;SDS011;62035;52.094;5.112;2022-12-07T01:08:47;8.77;;;2.60;;
62030;SDS011;62035;52.094;5.112;2022-12-07T01:11:16;9.90;;;2.78;;
62030;SDS011;62035;52.094;5.112;2022-12-07T01:13:46;9.30;;;2.70;;
62030;SDS011;62035;52.094;5.112;2022-12-07T01:16:16;10.57;;;2.75;;
62030;SDS011;62035;52.094;5.112;2022-12-07T01:18:46;12.10;;;3.38;;
62030;SDS011;62035;52.094;5.112;2022-12-07T01:21:17;9.23;;;3.08;;
62030;SDS011;62035;52.094;5.112;2022-12-07T01:23:49;9.32;;;2.90;;
62030;SDS011;62035;52.094;5.112;2022-12-07T01:26:19;7.68;;;2.67;;
62030;SDS011;62035;52.094;5.112;2022-12-07T01:28:50;12.50;;;3.05;;
62030;SDS011;62035;52.094;5.112;2022-12-07T01:31:21;6.82;;;3.05;;
62030;SDS011;62035;52.094;5.112;2022-12-07T01:33:52;7.15;;;2.70;;
62030;SDS011;62035;52.094;5.112;2022-12-07T01:36:23;11.48;;;3.10;;
62030;SDS011;62035;52.094;5.112;2022-12-07T01:38:57;7.97;;;2.45;;
62030;SDS011;62035;52.094;5.112;2022-12-07T01:41:28;6.90;;;2.63;;
62030;SDS011;62035;52.094;5.112;2022-12-07T01:44:08;6.53;;;2.33;;
62030;SDS011;62035;52.094;5.112;2022-12-07T01:46:48;7.50;;;2.50;;
62030;SDS011;62035;52.094;5.112;2022-12-07T01:49:23;7.90;;;2.92;;
62030;SDS011;62035;52.094;5.112;2022-12-07T01:52:01;9.38;;;2.47;;
62030;SDS011;62035;52.094;5.112;2022-12-07T01:57:11;8.05;;;2.10;;
62030;SDS011;62035;52.094;5.112;2022-12-07T01:59:43;6.30;;;3.00;;
62030;SDS011;62035;52.094;5.112;2022-12-07T02:02:16;11.32;;;3.28;;
62030;SDS011;62035;52.094;5.112;2022-12-07T02:04:50;6.07;;;2.30;;
62030;SDS011;62035;52.094;5.112;2022-12-07T02:07:20;7.18;;;2.45;;
62030;SDS011;62035;52.094;5.112;2022-12-07T02:09:51;7.85;;;2.47;;
62030;SDS011;62035;52.094;5.112;2022-12-07T02:12:19;5.82;;;2.25;;
62030;SDS011;62035;52.094;5.112;2022-12-07T02:14:48;6.53;;;2.72;;
62030;SDS011;62035;52.094;5.112;2022-12-07T02:17:19;9.52;;;2.10;;
62030;SDS011;62035;52.094;5.112;2022-12-07T02:23:11;7.55;;;1.90;;
62030;SDS011;62035;52.094;5.112;2022-12-07T02:26:16;14.20;;;3.20;;
62030;SDS011;62035;52.094;5.112;2022-12-07T02:29:31;13.50;;;3.20;;
62030;SDS011;62035;52.094;5.112;2022-12-07T02:32:07;11.38;;;3.33;;
62030;SDS011;62035;52.094;5.112;2022-12-07T02:34:44;15.35;;;3.20;;
62030;SDS011;62035;52.094;5.112;2022-12-07T02:37:22;9.15;;;2.55;;
62030;SDS011;62035;52.094;5.112;2022-12-07T02:40:04;9.57;;;3.00;;
62030;SDS011;62035;52.094;5.112;2022-12-07T02:42:40;12.35;;;3.58;;
62030;SDS011;62035;52.094;5.112;2022-12-07T02:45:15;6.57;;;2.20;;
62030;SDS011;62035;52.094;5.112;2022-12-07T02:47:50;6.55;;;2.85;;
62030;SDS011;62035;52.094;5.112;2022-12-07T02:50:24;6.72;;;1.90;;
62030;SDS011;62035;52.094;5.112;2022-12-07T02:52:53;3.63;;;1.60;;
62030;SDS011;62035;52.094;5.112;2022-12-07T02:55:30;6.43;;;1.85;;
62030;SDS011;62035;52.094;5.112;2022-12-07T02:58:17;7.82;;;2.25;;
62030;SDS011;62035;52.094;5.112;2022-12-07T03:01:03;5.43;;;1.70;;
62030;SDS011;62035;52.094;5.112;2022-12-07T03:03:47;6.95;;;2.00;;
62030;SDS011;62035;52.094;5.112;2022-12-07T03:06:27;4.75;;;1.73;;
62030;SDS011;62035;52.094;5.112;2022-12-07T03:09:05;7.03;;;1.80;;
62030;SDS011;62035;52.094;5.112;2022-12-07T03:11:47;6.05;;;1.60;;
62030;SDS011;62035;52.094;5.112;2022-12-07T03:14:23;6.05;;;1.30;;
62030;SDS011;62035;52.094;5.112;2022-12-07T03:17:00;5.68;;;1.77;;
62030;SDS011;62035;52.094;5.112;2022-12-07T03:19:37;9.25;;;2.00;;
62030;SDS011;62035;52.094;5.112;2022-12-07T03:22:07;6.63;;;1.80;;
62030;SDS011;62035;52.094;5.112;2022-12-07T03:24:40;7.97;;;1.60;;
62030;SDS011;62035;52.094;5.112;2022-12-07T03:27:20;7.03;;;2.38;;
62030;SDS011;62035;52.094;5.112;2022-12-07T03:29:56;5.72;;;1.88;;
62030;SDS011;62035;52.094;5.112;2022-12-07T03:32:33;5.05;;;1.83;;
62030;SDS011;62035;52.094;5.112;2022-12-07T03:35:07;8.25;;;1.50;;
62030;SDS011;62035;52.094;5.112;2022-12-07T03:37:45;6.40;;;1.83;;
62030;SDS011;62035;52.094;5.112;2022-12-07T03:40:22;5.00;;;1.40;;
62030;SDS011;62035;52.094;5.112;2022-12-07T03:42:55;8.88;;;1.55;;
62030;SDS011;62035;52.094;5.112;2022-12-07T03:45:28;7.30;;;1.48;;
62030;SDS011;62035;52.094;5.112;2022-12-07T03:48:08;4.90;;;1.50;;
62030;SDS011;62035;52.094;5.112;2022-12-07T03:50:49;6.65;;;1.65;;
62030;SDS011;62035;52.094;5.112;2022-12-07T03:53:24;7.38;;;2.33;;
62030;SDS011;62035;52.094;5.112;2022-12-07T03:56:00;5.32;;;1.45;;
62030;SDS011;62035;52.094;5.112;2022-12-07T03:58:30;4.43;;;1.63;;
62030;SDS011;62035;52.094;5.112;2022-12-07T04:01:01;7.30;;;1.80;;
62030;SDS011;62035;52.094;5.112;2022-12-07T04:03:30;4.57;;;1.40;;
62030;SDS011;62035;52.094;5.112;2022-12-07T04:05:57;9.80;;;1.45;;
62030;SDS011;62035;52.094;5.112;2022-12-07T04:08:26;4.10;;;1.27;;
62030;SDS011;62035;52.094;5.112;2022-12-07T04:10:53;4.28;;;1.52;;
62030;SDS011;62035;52.094;5.112;2022-12-07T04:13:21;7.65;;;1.42;;
62030;SDS011;62035;52.094;5.112;2022-12-07T04:15:49;5.10;;;1.92;;
62030;SDS011;62035;52.094;5.112;2022-12-07T04:18:16;3.05;;;1.15;;
62030;SDS011;62035;52.094;5.112;2022-12-07T04:20:46;9.88;;;1.50;;
62030;SDS011;62035;52.094;5.112;2022-12-07T04:23:14;5.07;;;1.33;;
62030;SDS011;62035;52.094;5.112;2022-12-07T04:25:42;5.82;;;1.30;;
62030;SDS011;62035;52.094;5.112;2022-12-07T04:28:09;6.70;;;1.40;;
62030;SDS011;62035;52.094;5.112;2022-12-07T04:30:37;10.43;;;1.55;;
62030;SDS011;62035;52.094;5.112;2022-12-07T04:33:04;7.38;;;1.40;;
62030;SDS011;62035;52.094;5.112;2022-12-07T04:35:32;3.50;;;1.35;;
62030;SDS011;62035;52.094;5.112;2022-12-07T04:38:01;6.07;;;1.38;;
62030;SDS011;62035;52.094;5.112;2022-12-07T04:40:29;5.82;;;1.40;;
62030;SDS011;62035;52.094;5.112;2022-12-07T04:42:56;8.70;;;1.65;;
62030;SDS011;62035;52.094;5.112;2022-12-07T04:45:24;9.77;;;2.30;;
62030;SDS011;62035;52.094;5.112;2022-12-07T04:47:51;5.03;;;1.48;;
62030;SDS011;62035;52.094;5.112;2022-12-07T04:50:19;14.48;;;2.17;;
62030;SDS011;62035;52.094;5.112;2022-12-07T04:52:47;5.38;;;1.30;;
62030;SDS011;62035;52.094;5.112;2022-12-07T04:55:16;4.20;;;1.40;;
62030;SDS011;62035;52.094;5.112;2022-12-07T04:57:43;7.50;;;1.50;;
62030;SDS011;62035;52.094;5.112;2022-12-07T05:00:11;7.47;;;1.60;;
62030;SDS011;62035;52.094;5.112;2022-12-07T05:02:39;6.78;;;1.30;;
62030;SDS011;62035;52.094;5.112;2022-12-07T05:05:07;6.00;;;1.75;;
62030;SDS011;62035;52.094;5.112;2022-12-07T05:07:35;7.60;;;1.88;;
62030;SDS011;62035;52.094;5.112;2022-12-07T05:10:02;8.23;;;1.60;;
62030;SDS011;62035;52.094;5.112;2022-12-07T05:12:33;9.20;;;1.80;;
62030;SDS011;62035;52.094;5.112;2022-12-07T05:15:00;14.80;;;1.50;;
62030;SDS011;62035;52.094;5.112;2022-12-07T05:17:28;5.65;;;1.23;;
62030;SDS011;62035;52.094;5.112;2022-12-07T05:19:55;7.03;;;1.45;;
62030;SDS011;62035;52.094;5.112;2022-12-07T05:22:23;9.32;;;1.95;;
62030;SDS011;62035;52.094;5.112;2022-12-07T05:24:53;12.15;;;1.85;;
62030;SDS011;62035;52.094;5.112;2022-12-07T05:27:21;6.18;;;1.58;;
62030;SDS011;62035;52.094;5.112;2022-12-07T05:29:51;16.73;;;2.00;;
62030;SDS011;62035;52.094;5.112;2022-12-07T05:32:19;12.40;;;2.17;;
62030;SDS011;62035;52.094;5.112;2022-12-07T05:34:46;9.98;;;1.60;;
62030;SDS011;62035;52.094;5.112;2022-12-07T05:37:14;8.05;;;1.63;;
62030;SDS011;62035;52.094;5.112;2022-12-07T05:39:41;6.55;;;1.58;;
62030;SDS011;62035;52.094;5.112;2022-12-07T05:42:10;3.13;;;1.40;;
62030;SDS011;62035;52.094;5.112;2022-12-07T05:44:40;3.78;;;1.42;;
62030;SDS011;62035;52.094;5.112;2022-12-07T05:47:10;9.20;;;1.77;;
62030;SDS011;62035;52.094;5.112;2022-12-07T05:49:39;9.75;;;1.85;;
62030;SDS011;62035;52.094;5.112;2022-12-07T05:52:07;9.35;;;1.90;;
62030;SDS011;62035;52.094;5.112;2022-12-07T05:54:34;8.50;;;2.00;;
62030;SDS011;62035;52.094;5.112;2022-12-07T05:57:02;8.63;;;1.92;;
62030;SDS011;62035;52.094;5.112;2022-12-07T05:59:30;5.70;;;1.70;;
62030;SDS011;62035;52.094;5.112;2022-12-07T06:01:58;5.97;;;1.90;;
62030;SDS011;62035;52.094;5.112;2022-12-07T06:04:31;6.82;;;1.55;;
62030;SDS011;62035;52.094;5.112;2022-12-07T06:07:02;7.80;;;1.60;;
62030;SDS011;62035;52.094;5.112;2022-12-07T06:09:31;6.72;;;1.58;;
62030;SDS011;62035;52.094;5.112;2022-12-07T06:11:59;6.63;;;1.42;;
62030;SDS011;62035;52.094;5.112;2022-12-07T06:14:45;5.18;;;2.13;;
62030;SDS011;62035;52.094;5.112;2022-12-07T06:17:13;9.57;;;1.70;;
62030;SDS011;62035;52.094;5.112;2022-12-07T06:19:42;8.98;;;1.88;;
62030;SDS011;62035;52.094;5.112;2022-12-07T06:22:10;9.98;;;1.60;;
62030;SDS011;62035;52.094;5.112;2022-12-07T06:24:39;11.13;;;2.25;;
62030;SDS011;62035;52.094;5.112;2022-12-07T06:27:07;7.05;;;2.08;;
62030;SDS011;62035;52.094;5.112;2022-12-07T06:29:35;7.57;;;1.65;;
62030;SDS011;62035;52.094;5.112;2022-12-07T06:32:03;9.25;;;1.52;;
62030;SDS011;62035;52.094;5.112;2022-12-07T06:34:32;8.30;;;1.77;;
62030;SDS011;62035;52.094;5.112;2022-12-07T06:37:01;5.55;;;1.50;;
62030;SDS011;62035;52.094;5.112;2022-12-07T06:39:29;8.80;;;1.58;;
62030;SDS011;62035;52.094;5.112;2022-12-07T06:41:57;8.63;;;2.55;;
62030;SDS011;62035;52.094;5.112;2022-12-07T06:44:25;3.92;;;1.65;;
62030;SDS011;62035;52.094;5.112;2022-12-07T06:46:53;5.25;;;1.83;;
62030;SDS011;62035;52.094;5.112;2022-12-07T06:49:21;12.02;;;1.80;;
62030;SDS011;62035;52.094;5.112;2022-12-07T06:51:48;5.38;;;1.80;;
62030;SDS011;62035;52.094;5.112;2022-12-07T06:54:17;8.55;;;2.03;;
62030;SDS011;62035;52.094;5.112;2022-12-07T06:56:45;8.13;;;1.60;;
62030;SDS011;62035;52.094;5.112;2022-12-07T06:59:12;12.20;;;2.17;;
62030;SDS011;62035;52.094;5.112;2022-12-07T07:01:40;11.93;;;1.90;;
62030;SDS011;62035;52.094;5.112;2022-12-07T07:04:08;4.00;;;1.30;;
62030;SDS011;62035;52.094;5.112;2022-12-07T07:06:35;6.03;;;1.83;;
62030;SDS011;62035;52.094;5.112;2022-12-07T07:09:03;7.47;;;1.80;;
62030;SDS011;62035;52.094;5.112;2022-12-07T07:11:32;6.53;;;1.90;;
62030;SDS011;62035;52.094;5.112;2022-12-07T07:14:00;15.23;;;2.30;;
62030;SDS011;62035;52.094;5.112;2022-12-07T07:16:28;6.40;;;1.75;;
62030;SDS011;62035;52.094;5.112;2022-12-07T07:18:57;6.35;;;1.77;;
62030;SDS011;62035;52.094;5.112;2022-12-07T07:21:24;5.63;;;1.52;;
62030;SDS011;62035;52.094;5.112;2022-12-07T07:23:52;9.95;;;2.00;;
62030;SDS011;62035;52.094;5.112;2022-12-07T07:26:20;5.60;;;2.00;;
62030;SDS011;62035;52.094;5.112;2022-12-07T07:28:49;9.88;;;2.17;;
62030;SDS011;62035;52.094;5.112;2022-12-07T07:31:16;9.57;;;2.10;;
62030;SDS011;62035;52.094;5.112;2022-12-07T07:33:44;7.95;;;2.03;;
62030;SDS011;62035;52.094;5.112;2022-12-07T07:36:12;13.20;;;2.35;;
62030;SDS011;62035;52.094;5.112;2022-12-07T07:38:40;6.03;;;1.83;;
62030;SDS011;62035;52.094;5.112;2022-12-07T07:41:08;5.32;;;1.73;;
62030;SDS011;62035;52.094;5.112;2022-12-07T07:43:35;7.10;;;1.70;;
62030;SDS011;62035;52.094;5.112;2022-12-07T07:46:04;8.57;;;2.35;;
62030;SDS011;62035;52.094;5.112;2022-12-07T07:48:32;11.75;;;1.90;;
62030;SDS011;62035;52.094;5.112;2022-12-07T07:50:59;9.30;;;1.90;;
62030;SDS011;62035;52.094;5.112;2022-12-07T07:53:27;5.20;;;1.70;;
62030;SDS011;62035;52.094;5.112;2022-12-07T07:55:55;5.18;;;2.00;;
62030;SDS011;62035;52.094;5.112;2022-12-07T07:58:22;5.38;;;1.58;;
62030;SDS011;62035;52.094;5.112;2022-12-07T08:00:50;6.95;;;1.65;;
62030;SDS011;62035;52.094;5.112;2022-12-07T08:03:19;7.20;;;1.80;;
62030;SDS011;62035;52.094;5.112;2022-12-07T08:05:47;7.65;;;2.20;;
62030;SDS011;62035;52.094;5.112;2022-12-07T08:08:14;10.35;;;2.00;;
62030;SDS011;62035;52.094;5.112;2022-12-07T08:10:42;4.50;;;1.65;;
62030;SDS011;62035;52.094;5.112;2022-12-07T08:13:09;10.25;;;1.92;;
62030;SDS011;62035;52.094;5.112;2022-12-07T08:15:40;6.15;;;1.80;;
62030;SDS011;62035;52.094;5.112;2022-12-07T08:18:10;14.52;;;1.63;;
62030;SDS011;62035;52.094;5.112;2022-12-07T08:20:40;13.52;;;1.98;;
62030;SDS011;62035;52.094;5.112;2022-12-07T08:23:09;8.27;;;1.88;;
62030;SDS011;62035;52.094;5.112;2022-12-07T08:25:38;7.03;;;1.77;;
62030;SDS011;62035;52.094;5.112;2022-12-07T08:28:06;5.53;;;1.63;;
62030;SDS011;62035;52.094;5.112;2022-12-07T08:30:34;7.60;;;1.65;;
62030;SDS011;62035;52.094;5.112;2022-12-07T08:33:02;14.10;;;2.22;;
62030;SDS011;62035;52.094;5.112;2022-12-07T08:35:29;7.18;;;2.60;;
62030;SDS011;62035;52.094;5.112;2022-12-07T08:38:01;4.78;;;1.98;;
62030;SDS011;62035;52.094;5.112;2022-12-07T08:40:30;7.60;;;2.17;;
62030;SDS011;62035;52.094;5.112;2022-12-07T08:42:57;4.95;;;1.55;;
62030;SDS011;62035;52.094;5.112;2022-12-07T08:45:25;9.32;;;1.83;;
62030;SDS011;62035;52.094;5.112;2022-12-07T08:47:54;9.27;;;2.10;;
62030;SDS011;62035;52.094;5.112;2022-12-07T08:50:27;7.13;;;2.25;;
62030;SDS011;62035;52.094;5.112;2022-12-07T08:52:56;11.82;;;2.00;;
62030;SDS011;62035;52.094;5.112;2022-12-07T08:55:27;6.53;;;2.00;;
62030;SDS011;62035;52.094;5.112;2022-12-07T08:57:56;8.13;;;2.08;;
62030;SDS011;62035;52.094;5.112;2022-12-07T09:00:25;4.70;;;1.85;;
62030;SDS011;62035;52.094;5.112;2022-12-07T09:02:53;11.13;;;2.30;;
62030;SDS011;62035;52.094;5.112;2022-12-07T09:05:21;6.07;;;2.47;;
62030;SDS011;62035;52.094;5.112;2022-12-07T09:07:50;9.48;;;2.53;;
62030;SDS011;62035;52.094;5.112;2022-12-07T09:10:23;6.95;;;1.60;;
62030;SDS011;62035;52.094;5.112;2022-12-07T09:12:53;8.48;;;2.55;;
62030;SDS011;62035;52.094;5.112;2022-12-07T09:15:20;8.52;;;2.00;;
62030;SDS011;62035;52.094;5.112;2022-12-07T09:17:48;6.38;;;1.48;;
62030;SDS011;62035;52.094;5.112;2022-12-07T09:20:15;7.78;;;2.05;;
62030;SDS011;62035;52.094;5.112;2022-12-07T09:22:43;5.30;;;1.70;;
62030;SDS011;62035;52.094;5.112;2022-12-07T09:25:11;9.98;;;2.08;;
62030;SDS011;62035;52.094;5.112;2022-12-07T09:27:38;4.15;;;1.63;;
62030;SDS011;62035;52.094;5.112;2022-12-07T09:30:08;10.32;;;2.08;;
62030;SDS011;62035;52.094;5.112;2022-12-07T09:32:36;9.77;;;2.63;;
62030;SDS011;62035;52.094;5.112;2022-12-07T09:35:04;9.15;;;2.00;;
62030;SDS011;62035;52.094;5.112;2022-12-07T09:37:32;5.72;;;1.80;;
62030;SDS011;62035;52.094;5.112;2022-12-07T09:40:02;4.72;;;1.77;;
62030;SDS011;62035;52.094;5.112;2022-12-07T09:42:32;6.20;;;2.05;;
62030;SDS011;62035;52.094;5.112;2022-12-07T09:45:05;8.23;;;2.50;;
62030;SDS011;62035;52.094;5.112;2022-12-07T09:47:41;9.10;;;2.35;;
62030;SDS011;62035;52.094;5.112;2022-12-07T09:50:12;7.47;;;2.08;;
62030;SDS011;62035;52.094;5.112;2022-12-07T09:52:42;10.93;;;3.08;;
62030;SDS011;62035;52.094;5.112;2022-12-07T09:55:14;7.45;;;1.90;;
62030;SDS011;62035;52.094;5.112;2022-12-07T09:57:46;13.23;;;2.25;;
62030;SDS011;62035;52.094;5.112;2022-12-07T10:00:16;12.65;;;2.85;;
62030;SDS011;62035;52.094;5.112;2022-12-07T10:02:48;9.25;;;2.35;;
62030;SDS011;62035;52.094;5.112;2022-12-07T10:05:23;8.10;;;2.22;;
62030;SDS011;62035;52.094;5.112;2022-12-07T10:07:55;8.65;;;1.95;;
62030;SDS011;62035;52.094;5.112;2022-12-07T10:10:24;9.48;;;1.98;;
62030;SDS011;62035;52.094;5.112;2022-12-07T10:12:57;10.50;;;2.00;;
62030;SDS011;62035;52.094;5.112;2022-12-07T10:15:42;5.22;;;1.80;;
62030;SDS011;62035;52.094;5.112;2022-12-07T10:18:19;9.30;;;1.60;;
62030;SDS011;62035;52.094;5.112;2022-12-07T10:21:05;6.28;;;1.42;;
62030;SDS011;62035;52.094;5.112;2022-12-07T10:23:40;5.50;;;2.00;;
62030;SDS011;62035;52.094;5.112;2022-12-07T10:28:59;5.03;;;1.77;;
62030;SDS011;62035;52.094;5.112;2022-12-07T10:31:41;9.85;;;2.08;;
62030;SDS011;62035;52.094;5.112;2022-12-07T10:34:15;9.13;;;2.03;;
62030;SDS011;62035;52.094;5.112;2022-12-07T10:36:51;8.27;;;1.90;;
62030;SDS011;62035;52.094;5.112;2022-12-07T10:39:20;6.70;;;1.75;;
62030;SDS011;62035;52.094;5.112;2022-12-07T10:41:53;9.80;;;2.45;;
62030;SDS011;62035;52.094;5.112;2022-12-07T10:44:23;8.38;;;1.45;;
62030;SDS011;62035;52.094;5.112;2022-12-07T10:47:02;8.98;;;1.70;;
62030;SDS011;62035;52.094;5.112;2022-12-07T10:55:49;6.80;;;1.77;;
62030;SDS011;62035;52.094;5.112;2022-12-07T10:58:38;4.63;;;1.55;;
62030;SDS011;62035;52.094;5.112;2022-12-07T11:01:27;5.65;;;1.65;;
62030;SDS011;62035;52.094;5.112;2022-12-07T11:04:20;11.80;;;1.83;;
62030;SDS011;62035;52.094;5.112;2022-12-07T11:09:42;6.78;;;1.50;;
62030;SDS011;62035;52.094;5.112;2022-12-07T11:12:33;7.28;;;1.60;;
62030;SDS011;62035;52.094;5.112;2022-12-07T11:15:21;10.65;;;1.75;;
62030;SDS011;62035;52.094;5.112;2022-12-07T11:17:56;10.68;;;1.40;;
62030;SDS011;62035;52.094;5.112;2022-12-07T11:20:38;5.68;;;1.50;;
62030;SDS011;62035;52.094;5.112;2022-12-07T11:23:19;5.30;;;1.55;;
62030;SDS011;62035;52.094;5.112;2022-12-07T11:26:18;4.53;;;1.27;;
62030;SDS011;62035;52.094;5.112;2022-12-07T11:29:18;5.60;;;1.50;;
62030;SDS011;62035;52.094;5.112;2022-12-07T11:32:04;7.60;;;1.80;;
62030;SDS011;62035;52.094;5.112;2022-12-07T11:34:47;6.43;;;1.45;;
62030;SDS011;62035;52.094;5.112;2022-12-07T11:37:32;4.75;;;1.42;;
62030;SDS011;62035;52.094;5.112;2022-12-07T11:40:04;9.00;;;1.60;;
62030;SDS011;62035;52.094;5.112;2022-12-07T11:42:44;7.93;;;1.67;;
62030;SDS011;62035;52.094;5.112;2022-12-07T11:45:19;9.18;;;2.05;;
62030;SDS011;62035;52.094;5.112;2022-12-07T11:47:54;5.38;;;2.08;;
62030;SDS011;62035;52.094;5.112;2022-12-07T11:50:33;2.45;;;1.10;;
62030;SDS011;62035;52.094;5.112;2022-12-07T11:53:12;11.40;;;1.95;;
62030;SDS011;62035;52.094;5.112;2022-12-07T11:55:47;4.78;;;1.60;;
62030;SDS011;62035;52.094;5.112;2022-12-07T11:58:22;4.03;;;1.50;;
62030;SDS011;62035;52.094;5.112;2022-12-07T12:01:13;7.50;;;1.50;;
62030;SDS011;62035;52.094;5.112;2022-12-07T12:03:54;3.40;;;1.13;;
62030;SDS011;62035;52.094;5.112;2022-12-07T12:06:33;5.78;;;1.40;;
62030;SDS011;62035;52.094;5.112;2022-12-07T12:09:04;5.82;;;1.75;;
62030;SDS011;62035;52.094;5.112;2022-12-07T12:11:45;8.13;;;1.80;;
62030;SDS011;62035;52.094;5.112;2022-12-07T12:14:46;11.15;;;1.85;;
62030;SDS011;62035;52.094;5.112;2022-12-07T12:17:41;8.00;;;1.67;;
62030;SDS011;62035;52.094;5.112;2022-12-07T12:20:43;9.23;;;1.65;;
62030;SDS011;62035;52.094;5.112;2022-12-07T12:23:19;5.70;;;1.65;;
62030;SDS011;62035;52.094;5.112;2022-12-07T12:25:50;7.60;;;1.73;;
62030;SDS011;62035;52.094;5.112;2022-12-07T12:28:24;4.50;;;1.90;;
62030;SDS011;62035;52.094;5.112;2022-12-07T12:31:04;8.38;;;2.00;;
62030;SDS011;62035;52.094;5.112;2022-12-07T12:33:42;5.20;;;1.60;;
62030;SDS011;62035;52.094;5.112;2022-12-07T12:36:21;5.35;;;1.50;;
62030;SDS011;62035;52.094;5.112;2022-12-07T12:39:10;6.15;;;1.52;;
62030;SDS011;62035;52.094;5.112;2022-12-07T12:41:57;5.47;;;1.60;;
62030;SDS011;62035;52.094;5.112;2022-12-07T12:44:40;7.22;;;1.40;;
62030;SDS011;62035;52.094;5.112;2022-12-07T12:54:05;8.15;;;1.70;;
62030;SDS011;62035;52.094;5.112;2022-12-07T12:56:42;10.68;;;1.83;;
62030;SDS011;62035;52.094;5.112;2022-12-07T12:59:25;4.05;;;1.30;;
62030;SDS011;62035;52.094;5.112;2022-12-07T13:02:01;4.45;;;1.40;;
62030;SDS011;62035;52.094;5.112;2022-12-07T13:04:53;4.13;;;1.33;;
62030;SDS011;62035;52.094;5.112;2022-12-07T13:10:39;6.03;;;1.60;;
62030;SDS011;62035;52.094;5.112;2022-12-07T13:13:28;10.57;;;1.67;;
62030;SDS011;62035;52.094;5.112;2022-12-07T13:22:46;4.95;;;1.35;;
62030;SDS011;62035;52.094;5.112;2022-12-07T13:25:21;9.57;;;1.90;;
62030;SDS011;62035;52.094;5.112;2022-12-07T13:28:01;5.25;;;1.60;;
62030;SDS011;62035;52.094;5.112;2022-12-07T13:30:42;7.60;;;1.38;;
62030;SDS011;62035;52.094;5.112;2022-12-07T13:33:22;8.90;;;1.40;;
62030;SDS011;62035;52.094;5.112;2022-12-07T13:35:53;9.55;;;1.75;;
62030;SDS011;62035;52.094;5.112;2022-12-07T13:38:23;7.03;;;1.75;;
62030;SDS011;62035;52.094;5.112;2022-12-07T13:43:48;2.95;;;1.13;;
62030;SDS011;62035;52.094;5.112;2022-12-07T13:46:31;7.13;;;1.30;;
62030;SDS011;62035;52.094;5.112;2022-12-07T13:49:18;4.95;;;1.10;;
62030;SDS011;62035;52.094;5.112;2022-12-07T13:51:49;2.38;;;1.40;;
62030;SDS011;62035;52.094;5.112;2022-12-07T13:54:19;1.77;;;1.13;;
62030;SDS011;62035;52.094;5.112;2022-12-07T13:56:49;4.78;;;1.10;;
62030;SDS011;62035;52.094;5.112;2022-12-07T13:59:19;2.90;;;1.20;;
62030;SDS011;62035;52.094;5.112;2022-12-07T14:01:50;5.07;;;1.13;;
62030;SDS011;62035;52.094;5.112;2022-12-07T14:04:29;3.95;;;1.10;;
62030;SDS011;62035;52.094;5.112;2022-12-07T14:07:00;2.80;;;1.13;;
62030;SDS011;62035;52.094;5.112;2022-12-07T14:09:54;3.85;;;1.33;;
62030;SDS011;62035;52.094;5.112;2022-12-07T14:12:26;3.67;;;1.10;;
62030;SDS011;62035;52.094;5.112;2022-12-07T14:14:56;4.20;;;1.20;;
62030;SDS011;62035;52.094;5.112;2022-12-07T14:17:29;3.33;;;1.30;;
62030;SDS011;62035;52.094;5.112;2022-12-07T14:19:58;3.83;;;1.48;;
62030;SDS011;62035;52.094;5.112;2022-12-07T14:22:28;7.18;;;1.10;;
62030;SDS011;62035;52.094;5.112;2022-12-07T14:25:02;6.60;;;1.65;;
62030;SDS011;62035;52.094;5.112;2022-12-07T14:27:49;4.15;;;1.20;;
62030;SDS011;62035;52.094;5.112;2022-12-07T14:30:24;4.57;;;1.48;;
62030;SDS011;62035;52.094;5.112;2022-12-07T14:32:56;9.45;;;1.85;;
62030;SDS011;62035;52.094;5.112;2022-12-07T14:35:28;5.63;;;1.70;;
62030;SDS011;62035;52.094;5.112;2022-12-07T14:37:57;5.75;;;2.30;;
62030;SDS011;62035;52.094;5.112;2022-12-07T14:40:26;4.70;;;1.13;;
62030;SDS011;62035;52.094;5.112;2022-12-07T14:42:56;5.68;;;1.73;;
62030;SDS011;62035;52.094;5.112;2022-12-07T14:45:27;7.65;;;1.70;;
62030;SDS011;62035;52.094;5.112;2022-12-07T14:47:55;4.80;;;1.38;;
62030;SDS011;62035;52.094;5.112;2022-12-07T14:50:23;5.15;;;1.73;;
62030;SDS011;62035;52.094;5.112;2022-12-07T14:52:54;6.95;;;1.45;;
62030;SDS011;62035;52.094;5.112;2022-12-07T14:55:26;3.53;;;1.40;;
62030;SDS011;62035;52.094;5.112;2022-12-07T14:57:57;6.90;;;1.63;;
62030;SDS011;62035;52.094;5.112;2022-12-07T15:00:26;6.82;;;2.20;;
62030;SDS011;62035;52.094;5.112;2022-12-07T15:02:55;8.93;;;1.90;;
62030;SDS011;62035;52.094;5.112;2022-12-07T15:05:23;7.20;;;1.73;;
62030;SDS011;62035;52.094;5.112;2022-12-07T15:07:52;3.67;;;1.45;;
62030;SDS011;62035;52.094;5.112;2022-12-07T15:10:21;4.88;;;1.27;;
62030;SDS011;62035;52.094;5.112;2022-12-07T15:12:55;4.40;;;1.25;;
62030;SDS011;62035;52.094;5.112;2022-12-07T15:15:44;3.92;;;1.73;;
62030;SDS011;62035;52.094;5.112;2022-12-07T15:18:12;3.80;;;1.42;;
62030;SDS011;62035;52.094;5.112;2022-12-07T15:20:39;3.15;;;1.15;;
62030;SDS011;62035;52.094;5.112;2022-12-07T15:23:09;4.80;;;1.63;;
62030;SDS011;62035;52.094;5.112;2022-12-07T15:25:37;5.28;;;1.55;;
62030;SDS011;62035;52.094;5.112;2022-12-07T15:28:07;4.13;;;1.60;;
62030;SDS011;62035;52.094;5.112;2022-12-07T15:30:36;3.08;;;1.38;;
62030;SDS011;62035;52.094;5.112;2022-12-07T15:33:05;4.43;;;1.63;;
62030;SDS011;62035;52.094;5.112;2022-12-07T15:35:32;2.78;;;1.90;;
62030;SDS011;62035;52.094;5.112;2022-12-07T15:38:00;5.32;;;2.00;;
62030;SDS011;62035;52.094;5.112;2022-12-07T15:40:29;4.28;;;1.90;;
62030;SDS011;62035;52.094;5.112;2022-12-07T15:42:57;9.77;;;1.70;;
62030;SDS011;62035;52.094;5.112;2022-12-07T15:45:25;4.88;;;1.85;;
62030;SDS011;62035;52.094;5.112;2022-12-07T15:47:51;6.72;;;1.98;;
62030;SDS011;62035;52.094;5.112;2022-12-07T15:50:20;4.88;;;1.33;;
62030;SDS011;62035;52.094;5.112;2022-12-07T15:52:49;4.35;;;1.80;;
62030;SDS011;62035;52.094;5.112;2022-12-07T15:55:16;7.47;;;1.48;;